createdAt,value
2022-10-15T00:04:49.894Z,12.93
2022-10-15T00:09:54.612Z,12.63
2022-10-15T00:15:02.266Z,9.67
2022-10-15T00:20:11.558Z,11.93
2022-10-15T00:25:16.492Z,13.00
2022-10-15T00:30:24.186Z,12.00
2022-10-15T00:35:29.242Z,10.90
2022-10-15T00:40:34.091Z,13.73
2022-10-15T00:45:41.563Z,11.70
2022-10-15T00:50:46.343Z,14.77
2022-10-15T00:55:54.285Z,13.83
2022-10-15T01:01:02.577Z,13.33
2022-10-15T01:06:07.894Z,16.17
2022-10-15T01:11:31.130Z,14.30
2022-10-15T01:16:48.064Z,11.43
2022-10-15T01:22:00.414Z,13.70
2022-10-15T01:27:32.487Z,14.70
2022-10-15T01:32:46.617Z,14.77
2022-10-15T01:37:56.960Z,14.13
2022-10-15T01:43:04.047Z,14.47
2022-10-15T01:48:31.476Z,13.03
2022-10-15T01:53:38.429Z,17.77
2022-10-15T01:58:46.002Z,14.53
2022-10-15T02:03:54.944Z,13.93
2022-10-15T02:09:10.173Z,14.30
2022-10-15T02:14:18.908Z,17.67
2022-10-15T02:19:35.395Z,19.50
2022-10-15T02:24:44.543Z,15.47
2022-10-15T02:29:51.856Z,14.17
2022-10-15T02:35:00.428Z,17.50
2022-10-15T02:40:05.356Z,17.47
2022-10-15T02:45:11.541Z,18.33
2022-10-15T02:50:20.479Z,18.57
2022-10-15T02:55:25.488Z,16.43
2022-10-15T03:00:30.820Z,17.47
2022-10-15T03:05:38.613Z,18.93
2022-10-15T03:10:45.800Z,17.53
2022-10-15T03:15:51.255Z,17.20
2022-10-15T03:21:00.158Z,16.33
2022-10-15T03:26:05.020Z,18.57
2022-10-15T03:31:10.533Z,14.83
2022-10-15T03:36:18.025Z,16.37
2022-10-15T03:41:23.070Z,15.23
2022-10-15T03:46:28.121Z,15.50
2022-10-15T03:51:36.552Z,18.53
2022-10-15T03:56:47.191Z,14.83
2022-10-15T04:02:02.523Z,14.70
2022-10-15T04:07:14.090Z,16.97
2022-10-15T04:12:19.898Z,14.53
2022-10-15T04:17:25.069Z,14.63
2022-10-15T04:22:33.039Z,15.97
2022-10-15T04:27:40.037Z,18.37
2022-10-15T04:32:54.571Z,15.87
2022-10-15T04:38:03.713Z,14.97
2022-10-15T04:43:28.608Z,15.67
2022-10-15T04:48:42.892Z,17.63
2022-10-15T04:53:53.820Z,13.07
2022-10-15T04:58:58.942Z,14.87
2022-10-15T05:04:09.729Z,15.30
2022-10-15T05:09:17.858Z,13.50
2022-10-15T05:14:27.420Z,14.93
2022-10-15T05:19:46.346Z,15.07
2022-10-15T05:25:01.272Z,14.23
2022-10-15T05:30:12.069Z,15.43
2022-10-15T05:35:26.236Z,15.33
2022-10-15T05:40:39.121Z,17.43
2022-10-15T05:45:57.655Z,14.07
2022-10-15T05:51:08.726Z,16.47
2022-10-15T05:56:17.169Z,16.20
2022-10-15T06:01:22.647Z,16.33
2022-10-15T06:06:30.297Z,15.57
2022-10-15T06:11:38.981Z,13.10
2022-10-15T06:16:46.087Z,14.57
2022-10-15T06:21:50.884Z,13.93
2022-10-15T06:26:58.332Z,13.70
2022-10-15T06:32:03.154Z,12.30
2022-10-15T06:37:07.933Z,12.83
2022-10-15T06:42:15.731Z,13.87
2022-10-15T06:47:25.894Z,11.60
2022-10-15T06:52:34.205Z,15.00
2022-10-15T06:57:41.819Z,11.33
2022-10-15T07:02:46.833Z,10.90
2022-10-15T07:07:55.112Z,9.70
2022-10-15T07:13:05.117Z,11.77
2022-10-15T07:18:09.945Z,8.43
2022-10-15T07:23:15.120Z,11.70
2022-10-15T07:28:22.634Z,8.67
2022-10-15T07:33:27.696Z,8.60
2022-10-15T07:38:37.752Z,9.03
2022-10-15T07:43:45.347Z,8.90
2022-10-15T07:48:50.143Z,5.57
2022-10-15T07:53:55.193Z,5.13
2022-10-15T07:59:02.696Z,5.30
2022-10-15T08:04:07.696Z,5.43
2022-10-15T08:09:14.462Z,5.37
2022-10-15T08:14:21.961Z,6.93
2022-10-15T08:19:26.905Z,5.20
2022-10-15T08:24:31.882Z,5.10
2022-10-15T08:29:39.241Z,4.27
2022-10-15T08:34:44.036Z,4.93
2022-10-15T08:39:48.786Z,5.93
2022-10-15T08:45:01.848Z,4.20
2022-10-15T08:50:15.878Z,4.57
2022-10-15T09:00:37.755Z,5.60
2022-10-15T09:05:50.900Z,5.27
2022-10-15T09:11:00.153Z,3.67
2022-10-15T09:16:14.092Z,3.63
2022-10-15T09:21:19.389Z,4.70
2022-10-15T09:26:31.050Z,3.60
2022-10-15T09:31:44.568Z,5.03
2022-10-15T09:36:55.963Z,3.87
2022-10-15T09:42:10.857Z,5.17
2022-10-15T09:47:27.487Z,3.57
2022-10-15T09:52:51.831Z,3.87
2022-10-15T09:57:59.389Z,5.17
2022-10-15T10:03:17.882Z,5.87
2022-10-15T10:08:25.980Z,3.53
2022-10-15T10:13:34.255Z,3.97
2022-10-15T10:18:50.375Z,5.27
2022-10-15T10:23:55.538Z,3.73
2022-10-15T10:29:09.967Z,3.17
2022-10-15T10:34:29.860Z,2.87
2022-10-15T10:39:37.664Z,3.20
2022-10-15T10:44:46.619Z,4.63
2022-10-15T10:49:55.318Z,3.60
2022-10-15T10:55:06.684Z,3.50
2022-10-15T11:00:18.518Z,3.97
2022-10-15T11:05:31.466Z,4.43
2022-10-15T11:10:44.315Z,4.27
2022-10-15T11:15:55.362Z,4.00
2022-10-15T11:21:13.558Z,4.00
2022-10-15T11:26:41.471Z,4.87
2022-10-15T11:32:02.789Z,3.60
2022-10-15T11:37:26.947Z,3.53
2022-10-15T11:42:39.589Z,3.53
2022-10-15T11:47:53.467Z,3.10
2022-10-15T11:53:26.307Z,2.93
2022-10-15T11:58:36.680Z,3.53
2022-10-15T12:03:52.698Z,3.63
2022-10-15T12:09:02.248Z,5.00
2022-10-15T12:14:17.352Z,4.80
2022-10-15T12:19:29.499Z,5.10
2022-10-15T12:24:56.618Z,3.57
2022-10-15T12:30:23.371Z,3.63
2022-10-15T12:35:38.241Z,5.10
2022-10-15T12:40:45.757Z,5.00
2022-10-15T12:45:56.030Z,3.57
2022-10-15T12:51:42.298Z,4.03
2022-10-15T12:56:49.738Z,4.73
2022-10-15T13:01:54.880Z,4.70
2022-10-15T13:07:06.490Z,5.10
2022-10-15T13:12:26.288Z,5.47
2022-10-15T13:17:31.295Z,4.37
2022-10-15T13:22:38.146Z,6.57
2022-10-15T13:27:45.760Z,5.03
2022-10-15T13:32:53.003Z,6.27
2022-10-15T13:37:59.234Z,4.30
2022-10-15T13:43:08.957Z,5.23
2022-10-15T13:48:14.669Z,4.50
2022-10-15T13:53:26.667Z,4.03
2022-10-15T13:58:37.641Z,3.57
2022-10-15T14:03:49.936Z,4.67
2022-10-15T14:08:56.507Z,3.97
2022-10-15T14:14:04.923Z,5.87
2022-10-15T14:19:15.723Z,4.23
2022-10-15T14:24:23.750Z,4.13
2022-10-15T14:29:38.969Z,5.97
2022-10-15T14:34:43.831Z,6.60
2022-10-15T14:39:51.600Z,6.03
2022-10-15T14:44:58.992Z,5.80
2022-10-15T14:50:04.727Z,6.70
2022-10-15T14:55:16.681Z,5.23
2022-10-15T15:00:29.141Z,5.77
2022-10-15T15:05:34.102Z,6.43
2022-10-15T15:10:38.909Z,7.70
2022-10-15T15:15:47.446Z,7.27
2022-10-15T15:20:53.545Z,7.27
2022-10-15T15:25:58.782Z,8.90
2022-10-15T15:31:09.709Z,8.03
2022-10-15T15:36:19.167Z,20.30
2022-10-15T15:41:27.405Z,12.03
2022-10-15T15:46:34.932Z,10.27
2022-10-15T15:51:39.754Z,12.10
2022-10-15T16:02:13.195Z,11.73
2022-10-15T16:07:19.550Z,11.23
2022-10-15T16:12:24.839Z,9.87
2022-10-15T16:17:32.298Z,10.13
2022-10-15T16:22:37.012Z,13.23
2022-10-15T16:27:41.971Z,12.93
2022-10-15T16:32:49.599Z,11.53
2022-10-15T16:37:56.243Z,12.53
2022-10-15T16:43:03.338Z,11.73
2022-10-15T16:48:11.007Z,12.23
2022-10-15T16:53:15.919Z,11.97
2022-10-15T16:58:21.159Z,12.27
2022-10-15T17:03:29.488Z,15.47
2022-10-15T17:08:41.832Z,13.50
2022-10-15T17:13:46.905Z,15.57
2022-10-15T17:18:55.431Z,11.70
2022-10-15T17:24:02.834Z,14.00
2022-10-15T17:29:09.221Z,16.17
2022-10-15T17:34:16.945Z,14.80
2022-10-15T17:39:23.851Z,9.90
2022-10-15T17:44:28.943Z,14.83
2022-10-15T17:49:36.263Z,10.10
2022-10-15T17:54:41.044Z,11.17
2022-10-15T17:59:48.804Z,11.03
2022-10-15T18:04:59.384Z,12.43
2022-10-15T18:10:04.360Z,15.57
2022-10-15T18:15:10.426Z,14.57
2022-10-15T18:20:18.082Z,15.23
2022-10-15T18:25:23.563Z,11.47
2022-10-15T18:30:28.465Z,13.47
2022-10-15T18:35:37.488Z,11.67
2022-10-15T18:40:42.386Z,13.03
2022-10-15T18:45:47.476Z,11.50
2022-10-15T18:50:55.748Z,9.73
2022-10-15T18:56:00.528Z,11.40
2022-10-15T19:01:19.637Z,11.30
2022-10-15T19:06:32.376Z,10.33
2022-10-15T19:11:38.044Z,12.97
2022-10-15T19:16:43.640Z,10.57
2022-10-15T19:21:52.685Z,11.23
2022-10-15T19:26:57.630Z,14.73
2022-10-15T19:32:03.777Z,14.67
2022-10-15T19:37:11.530Z,14.23
2022-10-15T19:42:26.230Z,16.03
2022-10-15T19:47:31.294Z,15.33
2022-10-15T19:52:38.833Z,18.37
2022-10-15T19:57:43.841Z,16.30
2022-10-15T20:02:48.658Z,17.77
2022-10-15T20:07:56.019Z,16.33
2022-10-15T20:13:00.942Z,18.13
2022-10-15T20:18:05.717Z,19.43
2022-10-15T20:23:13.927Z,19.23
2022-10-15T20:28:19.767Z,19.50
2022-10-15T20:33:25.110Z,17.10
2022-10-15T20:38:32.598Z,19.17
2022-10-15T20:43:37.504Z,20.13
2022-10-15T20:48:43.794Z,18.97
2022-10-15T20:53:51.292Z,17.90
2022-10-15T20:58:56.101Z,18.70
2022-10-15T21:04:01.055Z,15.93
2022-10-15T21:09:08.762Z,18.53
2022-10-15T21:14:14.972Z,18.50
2022-10-15T21:19:19.927Z,17.20
2022-10-15T21:24:28.295Z,19.07
2022-10-15T21:29:33.304Z,19.20
2022-10-15T21:34:38.186Z,18.13
2022-10-15T21:39:45.746Z,16.03
2022-10-15T21:44:50.504Z,18.63
2022-10-15T21:49:55.453Z,16.03
2022-10-15T21:55:02.787Z,16.60
2022-10-15T22:00:10.899Z,17.17
2022-10-15T22:05:35.917Z,16.10
2022-10-15T22:10:43.352Z,17.17
2022-10-15T22:15:48.212Z,20.23
2022-10-15T22:20:52.982Z,17.07
2022-10-15T22:26:03.858Z,18.30
2022-10-15T22:31:11.505Z,19.27
2022-10-15T22:36:19.606Z,18.97
2022-10-15T22:41:27.226Z,20.73
2022-10-15T22:46:35.009Z,20.87
2022-10-15T22:51:39.791Z,17.37
2022-10-15T22:56:47.456Z,18.10
2022-10-15T23:01:52.435Z,18.17
2022-10-15T23:06:57.255Z,19.43
2022-10-15T23:12:05.558Z,17.63
2022-10-15T23:17:10.404Z,17.87
2022-10-15T23:22:15.226Z,20.33
2022-10-15T23:27:22.997Z,18.63
2022-10-15T23:32:28.118Z,18.67
2022-10-15T23:37:32.952Z,20.10
2022-10-15T23:42:40.275Z,19.90
2022-10-15T23:47:45.017Z,19.67
2022-10-15T23:52:49.807Z,21.33
2022-10-15T23:57:57.394Z,20.77
